Brisbane, California
Current Conditions -  °F | °C
As of 1:56 AM on Tuesday 21 Oct 2014 (Local Time) from KSFO Reporting Station
Clear Clear  
Wind Chill: 60°   Ceiling: Unl
Heat Index: 60°   Visibility: 10mi
Dew Point: 55°   Wind: 3mph
Humidity: 83%   Direction: 250°WSW
Pressure: 30.07"   Gusts: NA
Location:  37.68°N, 122.4°W
Report Text: KSFO 210856Z 25003KT 10SM CLR 16/13 A3007 RMK AO2 SLP182 T01560128 50005 $
Loading
Personal Weather Stations






























Interactive Weather Map
Tropical Storm Tracking
New forecast layout! Learn more

10-Day Weather Forecast

Advertisements
Track Severe Weather on mobile